Punta Galea, Euskadi

latitud = 43° 22' 30''N | longitud = 003° 01' 10''W
90 metros sobre el nivel del mar | datos mensuales

Fecha, hora, temperatura, viento dirección y velocidad, humedad y presión.

  • 21-01-2018 02:00:00 | 12.00°C | Noroeste |26.00 km/h | 97.00% | 1016.30 hPa
  • 21-01-2018 01:00:00 | 11.90°C | Noroeste |15.00 km/h | 97.00% | 1016.10 hPa
  • 21-01-2018 00:00:00 | 12.50°C | Oeste |18.00 km/h | 95.00% | 1015.90 hPa
  • 20-01-2018 23:00:00 | 12.50°C | Oeste |14.00 km/h | 95.00% | 1015.60 hPa
  • 20-01-2018 22:00:00 | 12.90°C | Noroeste |14.00 km/h | 93.00% | 1015.30 hPa
  • 20-01-2018 21:00:00 | 12.80°C | Noroeste |22.00 km/h | 92.00% | 1015.10 hPa
  • 20-01-2018 20:00:00 | 13.00°C | Noroeste |18.00 km/h | 93.00% | 1014.40 hPa
  • 20-01-2018 19:00:00 | 13.50°C | Noroeste |15.00 km/h | 89.00% | 1013.80 hPa
  • 20-01-2018 18:00:00 | 13.60°C | Noroeste |15.00 km/h | 89.00% | 1013.20 hPa
  • 20-01-2018 17:00:00 | 14.80°C | Noroeste |17.00 km/h | 79.00% | 1012.50 hPa
  • 20-01-2018 16:00:00 | 14.90°C | Noroeste |19.00 km/h | 75.00% | 1011.80 hPa
  • 20-01-2018 15:00:00 | 14.50°C | Oeste |14.00 km/h | 81.00% | 1011.50 hPa
  • 20-01-2018 14:00:00 | 14.20°C | Oeste |19.00 km/h | 74.00% | 1011.90 hPa
  • 20-01-2018 13:00:00 | 14.60°C | Oeste |17.00 km/h | 65.00% | 1012.40 hPa
  • 20-01-2018 12:00:00 | 14.20°C | Oeste |14.00 km/h | 62.00% | 1012.90 hPa
  • 20-01-2018 11:00:00 | 12.90°C | Oeste |14.00 km/h | 60.00% | 1012.90 hPa
  • 20-01-2018 10:00:00 | 11.50°C | Oeste |13.00 km/h | 68.00% | 1013.20 hPa
  • 20-01-2018 09:00:00 | 9.00°C | Sudoeste |4.00 km/h | 88.00% | 1013.30 hPa
  • 20-01-2018 08:00:00 | 8.50°C | Sur |9.00 km/h | 91.00% | 1012.80 hPa
  • 20-01-2018 07:00:00 | 8.40°C | Sudeste |9.00 km/h | 93.00% | 1013.00 hPa
  • 20-01-2018 06:00:00 | 8.60°C | Sur |9.00 km/h | 93.00% | 1012.30 hPa
  • 20-01-2018 05:00:00 | 8.90°C | Sur |9.00 km/h | 91.00% | 1013.60 hPa
  • 20-01-2018 04:00:00 | 9.60°C | Sudoeste |6.00 km/h | 85.00% | 1014.50 hPa
  • 20-01-2018 03:00:00 | 9.90°C | Sudoeste |6.00 km/h | 88.00% | 1015.30 hPa